Time;durP1;ratioP1;P1;durP2;ratioP2;P2;SDS_P1;SDS_P2;PMS_P1;PMS_P2;Temp;Humidity;BMP_temperature;BMP_pressure;BME280_temperature;BME280_humidity;BME280_pressure;Samples;Min_cycle;Max_cycle;Signal;HPM_P1;HPM_P2
2022/03/09 00:01:36;;;;;;;5.40;2.40;;;;;;;18.99;25.17;101994.88;7314196;19;128982;-69
2022/03/09 00:04:04;;;;;;;4.40;2.35;;;;;;;18.97;25.15;101996.19;7312238;19;130133;-69
2022/03/09 00:06:31;;;;;;;3.55;2.60;;;;;;;18.95;25.56;101993.66;7310454;19;129659;-69
2022/03/09 00:08:57;;;;;;;5.05;2.20;;;;;;;18.93;25.37;101990.25;7310409;19;128689;-69
2022/03/09 00:11:25;;;;;;;4.32;2.60;;;;;;;;;;7313940;19;131025;-69
2022/03/09 00:13:52;;;;;;;3.67;2.28;;;;;;;18.90;25.45;102001.78;7313201;19;129664;-69
2022/03/09 00:16:19;;;;;;;3.67;2.42;;;;;;;18.89;25.26;102000.06;7313033;19;130484;-69
2022/03/09 00:18:46;;;;;;;3.22;2.42;;;;;;;18.87;25.39;101999.44;7311605;19;130307;-69
2022/03/09 00:21:13;;;;;;;4.32;2.58;;;;;;;18.85;25.12;101993.25;7310938;19;129028;-69
2022/03/09 00:23:40;;;;;;;3.35;2.33;;;;;;;18.83;25.15;102000.97;7313123;19;129538;-69
2022/03/09 00:26:07;;;;;;;3.15;2.05;;;;;;;18.82;25.55;101996.50;7311906;19;131609;-69
2022/03/09 00:28:34;;;;;;;3.25;2.40;;;;;;;18.81;25.62;101986.47;7311879;19;129392;-69
2022/03/09 00:31:03;;;;;;;2.88;2.30;;;;;;;18.80;25.31;101990.31;7314024;19;129306;-69
2022/03/09 00:33:32;;;;;;;3.17;2.28;;;;;;;18.79;25.20;101994.16;7309638;19;129626;-69
2022/03/09 00:35:59;;;;;;;3.67;2.20;;;;;;;18.76;25.36;101996.28;7312037;19;129594;-70
2022/03/09 00:38:27;;;;;;;2.95;2.42;;;;;;;18.76;25.61;101995.47;7311083;19;129423;-69
2022/03/09 00:40:54;;;;;;;4.72;2.30;;;;;;;18.73;25.34;101993.13;7312209;19;128876;-69
2022/03/09 00:43:21;;;;;;;2.70;2.10;;;;;;;18.72;25.38;102003.34;7312753;19;129762;-70
2022/03/09 00:45:48;;;;;;;3.65;2.28;;;;;;;18.71;25.63;102004.41;7310059;19;129535;-70
2022/03/09 00:48:15;;;;;;;3.72;2.40;;;;;;;18.70;25.23;102011.06;7312793;19;128830;-70
2022/03/09 00:50:42;;;;;;;3.38;2.22;;;;;;;18.68;25.56;102010.41;7319583;19;129353;-69
2022/03/09 00:53:08;;;;;;;4.75;2.33;;;;;;;18.67;25.56;102005.94;7317614;19;130299;-69
2022/03/09 00:55:37;;;;;;;3.63;2.50;;;;;;;18.66;25.62;102007.00;7318988;19;131205;-71
2022/03/09 00:58:04;;;;;;;4.13;2.47;;;;;;;18.65;25.21;102015.53;7316550;19;129193;-69
2022/03/09 01:00:31;;;;;;;3.75;2.08;;;;;;;18.63;25.46;102007.44;7318247;19;128937;-70
2022/03/09 01:02:58;;;;;;;4.10;2.30;;;;;;;18.64;25.53;102016.63;7319447;19;130709;-70
2022/03/09 01:05:26;;;;;;;5.43;2.30;;;;;;;18.61;25.20;102009.56;7314139;19;131023;-70
2022/03/09 01:07:53;;;;;;;5.00;2.30;;;;;;;18.59;25.28;102011.72;7316786;19;129902;-69
2022/03/09 01:10:20;;;;;;;3.70;2.30;;;;;;;18.58;25.14;102010.03;7315837;19;129323;-70
2022/03/09 01:12:47;;;;;;;5.38;2.67;;;;;;;18.57;25.44;102008.34;7316364;19;129944;-70
2022/03/09 01:15:14;;;;;;;5.43;2.60;;;;;;;18.55;25.46;102011.31;7317493;19;129825;-70
2022/03/09 01:17:44;;;;;;;3.83;2.50;;;;;;;18.55;25.22;102010.47;7316490;19;130584;-70
2022/03/09 01:20:11;;;;;;;3.67;2.60;;;;;;;18.54;25.43;102006.84;7318781;19;132177;-69
2022/03/09 01:22:38;;;;;;;3.00;2.47;;;;;;;18.54;25.58;102009.59;7315279;19;131023;-69
2022/03/09 01:25:05;;;;;;;3.30;2.20;;;;;;;18.52;25.23;102005.38;7317573;19;129524;-69
2022/03/09 01:27:32;;;;;;;4.75;2.60;;;;;;;18.51;25.24;102003.66;7315892;19;129142;-69
2022/03/09 01:29:59;;;;;;;4.15;2.45;;;;;;;18.50;25.55;102007.50;7316745;19;129098;-69
2022/03/09 01:32:26;;;;;;;4.50;2.45;;;;;;;18.49;25.34;102008.56;7317878;19;132009;-70
2022/03/09 01:34:53;;;;;;;3.33;2.55;;;;;;;18.48;25.12;102009.63;7316581;19;129850;-70
2022/03/09 01:37:19;;;;;;;3.78;2.50;;;;;;;18.46;25.41;102012.63;7315948;19;130221;-70
2022/03/09 01:39:46;;;;;;;5.20;2.22;;;;;;;18.44;25.25;102010.09;7318909;19;128847;-70
2022/03/09 01:42:13;;;;;;;3.67;2.40;;;;;;;18.43;25.41;102008.38;7315636;19;129037;-70
2022/03/09 01:44:40;;;;;;;4.47;2.20;;;;;;;18.43;25.42;102007.53;7316911;19;130170;-69
2022/03/09 01:47:07;;;;;;;3.47;2.40;;;;;;;18.41;25.35;102007.75;7316273;19;129483;-70
2022/03/09 01:49:34;;;;;;;3.40;2.78;;;;;;;18.38;25.22;102005.38;7316038;19;132331;-70
2022/03/09 01:52:01;;;;;;;3.47;2.38;;;;;;;18.36;25.14;101999.19;7318968;19;130036;-70
2022/03/09 01:54:29;;;;;;;6.00;2.63;;;;;;;18.35;25.66;102000.25;7315530;19;131423;-69
2022/03/09 01:56:58;;;;;;;4.18;2.42;;;;;;;18.36;25.39;102007.50;7317517;19;130031;-70
2022/03/09 01:59:25;;;;;;;4.82;2.78;;;;;;;18.35;25.46;102007.75;7314046;19;129030;-70
2022/03/09 02:01:55;;;;;;;6.00;2.72;;;;;;;18.35;25.43;102007.75;7315220;19;130393;-70
2022/03/09 02:04:22;;;;;;;3.03;2.40;;;;;;;18.32;25.46;102000.72;7316900;19;129407;-69
2022/03/09 02:06:49;;;;;;;4.20;2.58;;;;;;;18.31;25.45;102004.56;7313501;19;129020;-69
2022/03/09 02:12:02;;;;;;;3.70;2.60;;;;;;;18.27;25.43;101992.19;7317421;19;130210;-70
2022/03/09 02:14:33;;;;;;;4.55;2.22;;;;;;;18.26;25.40;101993.28;7314871;19;129561;-70
2022/03/09 02:17:14;;;;;;;3.63;2.35;;;;;;;18.25;25.27;101994.34;7316572;19;128895;-69
2022/03/09 02:19:43;;;;;;;5.32;2.53;;;;;;;18.24;25.24;101992.63;7314998;19;132080;-70
2022/03/09 02:22:19;;;;;;;3.60;2.53;;;;;;;18.23;25.20;101986.25;7315482;19;130556;-70
2022/03/09 02:24:50;;;;;;;4.35;2.50;;;;;;;18.23;25.57;101985.38;7316417;19;129541;-69
2022/03/09 02:27:20;;;;;;;3.60;2.35;;;;;;;18.22;25.11;101986.44;7314182;19;130408;-71
2022/03/09 02:29:48;;;;;;;3.90;2.35;;;;;;;18.20;25.56;101989.44;7316131;19;130582;-69
2022/03/09 02:32:15;;;;;;;4.18;2.55;;;;;;;18.19;25.56;101984.97;7316759;19;129595;-69
2022/03/09 02:34:42;;;;;;;3.08;2.42;;;;;;;18.18;25.29;101983.28;7314426;19;129957;-69
2022/03/09 02:37:09;;;;;;;4.35;2.45;;;;;;;18.17;25.46;101989.88;7315480;19;129336;-70
2022/03/09 02:39:36;;;;;;;5.72;2.15;;;;;;;18.17;25.38;101991.81;7314080;19;129036;-70
2022/03/09 02:42:03;;;;;;;5.18;2.60;;;;;;;18.14;25.64;101977.31;7313602;19;130447;-69
2022/03/09 02:44:30;;;;;;;3.85;2.60;;;;;;;18.13;25.67;101975.63;7315992;19;130206;-70
2022/03/09 02:46:58;;;;;;;6.07;2.78;;;;;;;18.13;25.28;101981.16;7313136;19;128926;-70
2022/03/09 02:49:25;;;;;;;3.40;2.38;;;;;;;18.12;25.30;101985.00;7316259;19;128994;-70
2022/03/09 02:51:52;;;;;;;4.07;2.47;;;;;;;18.12;25.65;101985.00;7314361;19;129680;-70
2022/03/09 02:54:19;;;;;;;3.50;2.00;;;;;;;18.10;25.57;101992.66;7314483;19;130565;-70
2022/03/09 02:56:45;;;;;;;5.32;2.58;;;;;;;18.10;25.47;101983.53;7313823;19;128991;-71
2022/03/09 02:59:12;;;;;;;5.28;2.20;;;;;;;18.08;25.34;101980.97;7310115;19;129012;-70
2022/03/09 03:01:40;;;;;;;3.28;2.58;;;;;;;18.08;25.59;101986.50;7315643;19;130541;-71
2022/03/09 03:04:06;;;;;;;5.13;2.58;;;;;;;18.08;25.31;101988.41;7314781;19;130485;-71
2022/03/09 03:06:33;;;;;;;3.80;2.25;;;;;;;18.07;25.58;101993.13;7312541;19;129729;-71
2022/03/09 03:09:00;;;;;;;5.30;2.53;;;;;;;18.06;25.69;101990.53;7313524;19;128993;-70
2022/03/09 03:11:27;;;;;;;6.78;2.65;;;;;;;18.05;25.31;101986.94;7312254;19;130609;-70
2022/03/09 03:13:54;;;;;;;3.42;2.53;;;;;;;18.05;25.34;101984.16;7315657;19;130020;-71
2022/03/09 03:16:21;;;;;;;3.70;2.72;;;;;;;18.04;25.19;101988.00;7313089;19;128983;-71
2022/03/09 03:18:47;;;;;;;3.20;2.55;;;;;;;18.04;25.53;101985.25;7310939;19;129103;-70
2022/03/09 03:21:14;;;;;;;3.05;2.38;;;;;;;18.04;25.43;101989.91;7316158;19;130511;-70
2022/03/09 03:23:41;;;;;;;4.65;2.58;;;;;;;18.01;25.35;101977.34;7313905;19;131211;-71
2022/03/09 03:26:08;;;;;;;2.90;2.30;;;;;;;18.00;25.19;101976.53;7315174;19;129158;-70
2022/03/09 03:28:35;;;;;;;3.55;2.40;;;;;;;18.00;25.56;101982.06;7312582;19;128844;-70
2022/03/09 03:31:02;;;;;;;3.13;2.50;;;;;;;18.00;25.22;101978.41;7313142;19;131247;-69
2022/03/09 03:33:29;;;;;;;3.72;2.47;;;;;;;17.99;25.24;101982.25;7314007;19;130893;-71
2022/03/09 03:35:56;;;;;;;4.75;2.42;;;;;;;17.98;25.46;101988.84;7311125;19;129904;-70
2022/03/09 03:38:23;;;;;;;3.15;2.53;;;;;;;17.97;25.31;101982.47;7311348;19;129024;-70
2022/03/09 03:40:52;;;;;;;3.38;2.20;;;;;;;17.97;25.67;101981.66;7313671;19;130069;-70
2022/03/09 03:43:19;;;;;;;4.03;2.90;;;;;;;17.96;25.59;101980.78;7311064;19;129869;-71
2022/03/09 03:45:45;;;;;;;6.18;2.92;;;;;;;17.96;25.63;101982.72;7314528;19;129462;-70
2022/03/09 03:48:12;;;;;;;3.22;2.40;;;;;;;17.95;25.65;101978.25;7311852;19;129353;-71
2022/03/09 03:50:39;;;;;;;4.50;2.47;;;;;;;17.94;25.36;101982.91;7314690;19;130885;-70
2022/03/09 03:53:09;;;;;;;4.68;2.33;;;;;;;17.94;25.23;101987.59;7313704;19;129117;-71
2022/03/09 03:55:36;;;;;;;4.40;2.53;;;;;;;17.92;25.54;101986.97;7312751;19;128840;-70
2022/03/09 03:58:03;;;;;;;3.47;2.33;;;;;;;17.92;25.26;101987.81;7313674;19;129045;-69
2022/03/09 04:00:30;;;;;;;5.53;2.50;;;;;;;17.90;25.23;101984.44;7311008;19;129767;-70
2022/03/09 04:03:00;;;;;;;4.03;2.60;;;;;;;17.91;25.51;101971.41;7308318;19;131284;-70
2022/03/09 04:05:28;;;;;;;3.80;2.55;;;;;;;17.91;25.50;101972.25;7310157;19;129037;-70
2022/03/09 04:07:56;;;;;;;3.75;3.00;;;;;;;17.90;25.08;101976.13;7310845;19;128953;-70
2022/03/09 04:10:23;;;;;;;4.10;2.63;;;;;;;17.90;25.53;101975.25;7314042;19;129646;-71
2022/03/09 04:12:49;;;;;;;5.50;2.80;;;;;;;17.89;25.05;101979.09;7310096;19;130503;-70
2022/03/09 04:15:16;;;;;;;4.65;2.80;;;;;;;17.89;25.04;101973.53;7312751;19;129430;-70
2022/03/09 04:17:45;;;;;;;4.63;2.92;;;;;;;17.87;25.25;101971.00;7314457;19;128775;-70
2022/03/09 04:20:13;;;;;;;3.22;2.65;;;;;;;17.87;25.37;101975.69;7311327;19;130139;-70
2022/03/09 04:22:41;;;;;;;4.13;2.67;;;;;;;17.85;25.38;101968.44;7312073;19;129135;-70
2022/03/09 04:25:09;;;;;;;4.45;2.75;;;;;;;17.83;25.05;101970.59;7311594;19;129189;-70
2022/03/09 04:27:36;;;;;;;3.33;2.70;;;;;;;17.83;25.29;101966.97;7312973;19;129315;-70
2022/03/09 04:30:07;;;;;;;3.42;2.85;;;;;;;17.82;25.36;101960.59;7313404;19;130166;-70
2022/03/09 04:32:35;;;;;;;3.92;2.50;;;;;;;17.82;25.05;101966.13;7311625;19;128980;-71
2022/03/09 04:35:04;;;;;;;2.72;2.42;;;;;;;17.81;25.09;101961.66;7313388;19;129962;-70
2022/03/09 04:37:35;;;;;;;5.32;2.72;;;;;;;17.80;24.98;101962.72;7310844;19;129118;-71
2022/03/09 04:40:03;;;;;;;3.72;2.70;;;;;;;17.79;24.91;101963.78;7311783;19;130676;-71
2022/03/09 04:42:30;;;;;;;4.80;3.30;;;;;;;17.78;25.01;101961.22;7313800;19;129857;-70
2022/03/09 04:44:57;;;;;;;3.10;2.50;;;;;;;17.78;25.30;101966.78;7311326;19;128913;-69
2022/03/09 04:47:24;;;;;;;4.47;2.90;;;;;;;17.77;25.07;101967.84;7313444;19;129059;-70
2022/03/09 04:49:51;;;;;;;3.05;2.45;;;;;;;17.76;25.25;101969.72;7311986;19;129744;-71
2022/03/09 04:52:18;;;;;;;3.83;2.63;;;;;;;17.77;25.05;101967.84;7312339;19;130213;-70
2022/03/09 04:54:46;;;;;;;2.67;2.40;;;;;;;17.80;25.06;101965.47;7313479;19;129178;-70
2022/03/09 04:57:14;;;;;;;3.20;2.45;;;;;;;17.89;24.68;101968.88;7309666;19;129140;-70
2022/03/09 04:59:41;;;;;;;3.28;2.70;;;;;;;18.05;24.71;101961.16;7311498;19;131749;-70
2022/03/09 05:02:08;;;;;;;4.15;2.60;;;;;;;18.24;24.46;101971.34;7313058;19;129506;-70
2022/03/09 05:04:35;;;;;;;2.95;2.30;;;;;;;18.48;24.55;101966.16;7310866;19;129213;-70
2022/03/09 05:07:02;;;;;;;3.67;2.70;;;;;;;18.77;24.52;101975.81;7312676;19;129790;-70
2022/03/09 05:09:31;;;;;;;4.28;2.30;;;;;;;19.08;24.21;101981.59;7310283;19;129771;-71
2022/03/09 05:11:58;;;;;;;3.40;1.80;;;;;;;19.38;23.63;101975.47;7311525;19;129022;-69
2022/03/09 05:14:24;;;;;;;3.17;2.15;;;;;;;19.72;23.80;101981.56;7313808;19;129779;-70
2022/03/09 05:16:51;;;;;;;3.13;2.53;;;;;;;20.03;23.14;101976.16;7310499;19;129020;-70
2022/03/09 05:19:18;;;;;;;2.78;2.00;;;;;;;20.26;22.79;101981.88;7310837;19;130016;-70
2022/03/09 05:21:45;;;;;;;4.18;2.40;;;;;;;20.47;22.71;101976.91;7310425;19;130568;-70
2022/03/09 05:24:31;;;;;;;2.70;2.30;;;;;;;20.65;22.93;101977.97;7310820;19;128995;-70
2022/03/09 05:26:58;;;;;;;2.90;2.50;;;;;;;20.74;22.60;101976.56;7312111;19;129725;-70
2022/03/09 05:29:25;;;;;;;2.35;2.15;;;;;;;20.80;22.33;101975.63;7308522;19;130135;-68
2022/03/09 05:31:51;;;;;;;2.92;2.03;;;;;;;20.84;22.48;101982.44;7310802;19;129668;-70
2022/03/09 05:34:18;;;;;;;3.08;2.47;;;;;;;20.87;22.49;101992.22;7312203;19;129231;-70
2022/03/09 05:36:45;;;;;;;2.90;2.35;;;;;;;20.88;22.21;101989.22;7317298;19;129677;-69
2022/03/09 05:39:12;;;;;;;3.95;2.42;;;;;;;20.84;22.13;101987.16;7317590;19;130706;-70
2022/03/09 05:41:40;;;;;;;3.58;2.33;;;;;;;20.81;22.50;101988.44;7315099;19;130068;-69
2022/03/09 05:44:07;;;;;;;2.30;2.10;;;;;;;20.76;22.25;101988.31;7318673;19;129111;-70
2022/03/09 05:46:33;;;;;;;3.30;2.30;;;;;;;20.69;22.67;101990.31;7315571;19;129075;-70
2022/03/09 05:49:01;;;;;;;2.47;2.10;;;;;;;20.62;22.56;101995.13;7315507;19;130016;-70
2022/03/09 05:51:28;;;;;;;4.60;2.45;;;;;;;20.55;22.60;101986.88;7317840;19;130237;-70
2022/03/09 05:53:55;;;;;;;3.80;2.20;;;;;;;20.47;22.41;101985.25;7314819;19;128881;-70
2022/03/09 05:56:22;;;;;;;2.40;2.20;;;;;;;20.40;22.88;101995.59;7316061;19;128897;-70
2022/03/09 05:58:49;;;;;;;3.38;2.53;;;;;;;20.32;22.93;101990.34;7317392;19;130573;-70
2022/03/09 06:01:15;;;;;;;2.97;2.40;;;;;;;20.23;22.47;102000.94;7312983;19;129461;-70
2022/03/09 06:03:42;;;;;;;3.63;2.75;;;;;;;20.16;22.97;101998.22;7317030;19;129267;-69
2022/03/09 06:06:09;;;;;;;2.65;2.20;;;;;;;20.09;23.00;102006.63;7315589;19;129107;-70
2022/03/09 06:08:36;;;;;;;2.92;2.38;;;;;;;20.03;22.94;102010.31;7316057;19;129645;-70
2022/03/09 06:11:06;;;;;;;2.40;2.10;;;;;;;19.99;22.95;102009.06;7317427;19;130239;-70
2022/03/09 06:13:33;;;;;;;2.90;2.05;;;;;;;19.98;23.22;102015.69;7315451;19;129365;-69
2022/03/09 06:16:00;;;;;;;4.32;2.22;;;;;;;19.99;22.97;102014.63;7314738;19;129551;-69
2022/03/09 06:18:27;;;;;;;3.75;2.65;;;;;;;20.01;22.94;102017.19;7315840;19;129617;-69
2022/03/09 06:20:54;;;;;;;3.42;2.38;;;;;;;20.03;23.28;102009.50;7313981;19;129544;-66
2022/03/09 06:23:21;;;;;;;3.83;2.55;;;;;;;20.06;23.34;102014.59;7317222;19;131637;-66
2022/03/09 06:25:47;;;;;;;4.78;2.60;;;;;;;20.07;23.24;102017.13;7315169;19;129520;-62
2022/03/09 06:28:15;;;;;;;4.50;2.75;;;;;;;20.08;23.29;102015.19;7316746;19;129673;-60
2022/03/09 06:30:42;;;;;;;5.07;2.60;;;;;;;20.08;23.02;102016.06;7311080;19;130410;-60
2022/03/09 06:33:08;;;;;;;5.65;2.88;;;;;;;20.09;22.72;102019.66;7312760;19;129620;-60
2022/03/09 06:35:35;;;;;;;3.90;2.65;;;;;;;20.09;23.17;102017.75;7314414;19;129627;-60
2022/03/09 06:38:06;;;;;;;6.68;2.90;;;;;;;20.08;23.03;102023.53;7311282;19;129449;-60
2022/03/09 06:40:33;;;;;;;5.03;2.90;;;;;;;20.08;22.74;102012.41;7314489;19;129800;-65
2022/03/09 06:43:00;;;;;;;5.38;2.90;;;;;;;20.08;23.16;102029.06;7312239;19;131252;-66
2022/03/09 06:45:27;;;;;;;5.47;2.72;;;;;;;20.04;23.07;102027.84;7314516;19;129752;-65
2022/03/09 06:47:54;;;;;;;6.82;3.38;;;;;;;20.01;22.68;102029.13;7313807;19;129624;-65
2022/03/09 06:50:21;;;;;;;7.80;2.72;;;;;;;19.98;23.02;102035.97;7311454;19;130468;-66
2022/03/09 06:52:48;;;;;;;3.97;2.40;;;;;;;19.96;23.18;102037.28;7315194;19;129223;-68
2022/03/09 06:55:15;;;;;;;4.72;3.05;;;;;;;19.91;22.81;102039.91;7311617;19;129565;-69
2022/03/09 06:57:41;;;;;;;5.25;2.67;;;;;;;19.89;23.20;102047.59;7314442;19;130438;-68
2022/03/09 07:00:14;;;;;;;5.55;2.88;;;;;;;19.84;22.93;102045.50;7314839;19;130597;-68
2022/03/09 07:02:41;;;;;;;3.47;2.85;;;;;;;19.81;23.20;102046.00;7314408;19;129035;-68
2022/03/09 07:05:09;;;;;;;4.68;2.83;;;;;;;19.80;22.98;102049.84;7314177;19;129312;-68
2022/03/09 07:07:37;;;;;;;4.65;2.47;;;;;;;19.77;23.12;102040.00;7312294;19;129790;-68
2022/03/09 07:10:05;;;;;;;5.57;2.85;;;;;;;19.76;22.90;102048.59;7313888;19;129558;-68
2022/03/09 07:12:32;;;;;;;6.85;2.83;;;;;;;19.73;23.37;102057.34;7316485;19;128904;-68
2022/03/09 07:14:59;;;;;;;4.13;2.80;;;;;;;19.69;23.25;102043.91;7313138;19;129564;-68
2022/03/09 07:17:25;;;;;;;4.07;2.97;;;;;;;19.68;22.80;102056.13;7315039;19;130669;-68
2022/03/09 07:19:53;;;;;;;10.85;2.78;;;;;;;19.68;23.01;102056.13;7311651;19;129574;-68
2022/03/09 07:22:20;;;;;;;3.00;2.40;;;;;;;19.69;22.76;102066.13;7314384;19;128848;-67
2022/03/09 07:24:47;;;;;;;5.07;3.10;;;;;;;19.69;23.14;102066.13;7313397;19;129330;-67
2022/03/09 07:27:13;;;;;;;4.68;2.65;;;;;;;19.72;22.89;102063.97;7313039;19;129912;-68
2022/03/09 07:29:41;;;;;;;4.70;2.72;;;;;;;19.74;22.95;102056.28;7315289;19;129451;-67
2022/03/09 07:32:14;;;;;;;7.43;3.35;;;;;;;19.77;22.48;102061.38;7313502;19;129644;-65
2022/03/09 07:35:01;;;;;;;9.30;3.85;;;;;;;19.81;22.60;102065.44;7313408;19;129263;-65
2022/03/09 07:37:27;;;;;;;6.15;3.10;;;;;;;19.86;22.33;102064.75;7315538;19;129518;-66
2022/03/09 07:39:57;;;;;;;4.63;3.42;;;;;;;19.90;22.50;102069.59;7311307;19;130070;-66
2022/03/09 07:42:24;;;;;;;7.05;3.33;;;;;;;19.94;22.16;102067.22;7313617;19;128976;-64
2022/03/09 07:44:50;;;;;;;5.55;3.55;;;;;;;19.95;22.22;102072.53;7312494;19;129936;-64
2022/03/09 07:47:17;;;;;;;4.65;3.50;;;;;;;19.97;21.96;102075.94;7311841;19;129651;-66
2022/03/09 07:49:44;;;;;;;6.85;3.58;;;;;;;19.99;21.88;102075.72;7314299;19;129413;-66
2022/03/09 07:52:11;;;;;;;7.32;3.35;;;;;;;20.02;21.91;102071.66;7311864;19;129010;-66
2022/03/09 07:54:37;;;;;;;6.20;3.33;;;;;;;20.05;22.17;102076.78;7313241;19;129495;-66
2022/03/09 07:57:04;;;;;;;4.72;3.13;;;;;;;20.06;21.72;102082.09;7311546;19;129247;-66
2022/03/09 07:59:31;;;;;;;7.65;3.28;;;;;;;20.12;21.64;102083.09;7311586;19;130103;-66
2022/03/09 08:01:58;;;;;;;4.93;2.95;;;;;;;20.24;22.05;102089.63;7312112;19;129156;-65
2022/03/09 08:04:25;;;;;;;5.32;3.25;;;;;;;20.48;21.95;102081.47;7311286;19;128973;-66
2022/03/09 08:06:53;;;;;;;5.43;3.15;;;;;;;21.06;21.42;102090.41;7312814;19;129807;-66
2022/03/09 08:09:20;;;;;;;4.82;2.88;;;;;;;22.40;20.39;102087.44;7314168;19;131374;-66
2022/03/09 08:11:47;;;;;;;4.88;3.10;;;;;;;24.15;18.74;102087.16;7308138;19;129217;-66
2022/03/09 08:14:15;;;;;;;6.53;2.67;;;;;;;25.30;18.02;102093.16;7311674;19;129285;-64
2022/03/09 08:16:42;;;;;;;4.97;3.13;;;;;;;26.35;17.13;102091.81;7312611;19;130074;-65
2022/03/09 08:19:09;;;;;;;3.83;2.60;;;;;;;25.03;17.72;102094.00;7311947;19;129664;-64
2022/03/09 08:21:36;;;;;;;2.97;2.58;;;;;;;24.19;18.07;102090.28;7311769;19;130245;-63
2022/03/09 08:24:03;;;;;;;6.28;3.30;;;;;;;23.57;18.92;102094.88;7312451;19;129090;-67
2022/03/09 08:26:30;;;;;;;5.85;3.17;;;;;;;23.08;19.25;102100.91;7314099;19;129631;-64
2022/03/09 08:28:56;;;;;;;5.07;2.90;;;;;;;22.66;19.60;102105.59;7312015;19;130675;-63
2022/03/09 08:31:24;;;;;;;3.90;2.70;;;;;;;22.32;20.04;102102.59;7311503;19;129032;-61
2022/03/09 08:33:51;;;;;;;5.68;2.85;;;;;;;22.81;19.52;102102.31;7311511;19;130799;-59
2022/03/09 08:36:17;;;;;;;4.35;3.25;;;;;;;24.59;18.33;102100.41;7309855;19;130270;-68
2022/03/09 08:38:44;;;;;;;5.20;3.17;;;;;;;25.65;17.32;102100.25;7312772;19;129558;-68
2022/03/09 08:41:11;;;;;;;4.60;3.13;;;;;;;26.27;16.62;102100.75;7310481;19;129748;-68
2022/03/09 08:43:38;;;;;;;4.03;3.08;;;;;;;26.29;16.70;102104.16;7310796;19;131870;-67
2022/03/09 08:46:04;;;;;;;4.68;2.92;;;;;;;25.40;17.10;102098.88;7311715;19;130155;-67
2022/03/09 08:48:32;;;;;;;6.45;3.15;;;;;;;24.60;18.16;102095.66;7310850;19;129882;-67
2022/03/09 08:50:58;;;;;;;6.85;2.80;;;;;;;24.01;18.24;102103.44;7312111;19;128847;-67
2022/03/09 08:53:25;;;;;;;5.47;3.00;;;;;;;23.51;18.63;102096.69;7311345;19;128867;-68
2022/03/09 08:55:52;;;;;;;5.93;2.92;;;;;;;23.08;18.78;102109.28;7312362;19;129915;-68
2022/03/09 08:58:20;;;;;;;2.65;2.35;;;;;;;22.71;19.45;102104.84;7312566;19;129605;-67
2022/03/09 09:00:47;;;;;;;4.20;2.63;;;;;;;22.39;19.81;102111.72;7308582;19;130032;-67
2022/03/09 09:03:14;;;;;;;4.22;3.00;;;;;;;22.10;20.20;102111.53;7310693;19;129105;-67
2022/03/09 09:05:41;;;;;;;6.85;3.00;;;;;;;21.87;20.50;102115.13;7309703;19;132368;-67
2022/03/09 09:08:08;;;;;;;3.97;2.65;;;;;;;21.66;20.26;102111.00;7310595;19;130817;-67
2022/03/09 09:10:36;;;;;;;5.15;2.95;;;;;;;21.48;20.54;102109.06;7316766;19;129354;-66
2022/03/09 09:13:03;;;;;;;5.68;3.30;;;;;;;21.34;21.11;102097.31;7316447;19;129655;-67
2022/03/09 09:15:30;;;;;;;4.20;2.80;;;;;;;21.17;20.97;102097.94;7317232;19;130463;-66
2022/03/09 09:18:03;;;;;;;3.47;2.58;;;;;;;21.06;20.98;102105.19;7315719;19;129435;-67
2022/03/09 09:20:46;;;;;;;5.10;2.75;;;;;;;20.93;21.21;102096.13;7315214;19;128851;-67
2022/03/09 09:23:12;;;;;;;5.18;2.95;;;;;;;20.83;21.41;102100.31;7317776;19;129049;-70
2022/03/09 09:25:43;;;;;;;4.15;2.80;;;;;;;20.70;21.51;102098.53;7316226;19;129108;-70
2022/03/09 09:28:09;;;;;;;5.40;3.28;;;;;;;20.63;21.64;102097.75;7316881;19;129809;-70
2022/03/09 09:30:36;;;;;;;6.50;3.58;;;;;;;20.62;21.33;102098.00;7318716;19;129325;-70
2022/03/09 09:33:04;;;;;;;7.45;4.10;;;;;;;20.59;21.17;102090.97;7316504;19;130731;-70
2022/03/09 09:35:30;;;;;;;7.57;4.90;;;;;;;20.54;21.32;102100.00;7317365;19;130016;-70
2022/03/09 09:38:09;;;;;;;13.27;6.80;;;;;;;20.49;20.62;102090.66;7314777;19;131116;-69
2022/03/09 09:40:41;;;;;;;12.65;7.32;;;;;;;20.43;20.34;102095.22;7316516;19;129072;-70
2022/03/09 09:43:10;;;;;;;12.93;8.70;;;;;;;20.38;20.21;102093.09;7318563;19;128939;-69
2022/03/09 09:45:38;;;;;;;18.95;9.20;;;;;;;20.35;19.77;102096.38;7315569;19;130282;-70
2022/03/09 09:48:07;;;;;;;16.20;8.88;;;;;;;20.31;19.68;102089.56;7316501;19;129595;-69
2022/03/09 09:50:35;;;;;;;18.70;9.70;;;;;;;20.28;19.51;102085.31;7318596;19;129571;-69
2022/03/09 09:53:04;;;;;;;19.17;10.77;;;;;;;20.23;19.74;102087.91;7315785;19;129330;-69
2022/03/09 09:55:31;;;;;;;14.40;10.23;;;;;;;20.21;19.54;102092.84;7318081;19;129522;-70
2022/03/09 09:57:59;;;;;;;15.13;9.95;;;;;;;20.18;19.04;102085.00;7314404;19;129931;-69
2022/03/09 10:00:26;;;;;;;15.75;12.10;;;;;;;20.17;19.16;102088.84;7316353;19;129325;-69
2022/03/09 10:03:00;;;;;;;16.85;11.60;;;;;;;20.13;18.95;102088.44;7314723;19;128978;-69
2022/03/09 10:05:27;;;;;;;17.30;11.25;;;;;;;20.12;19.19;102088.66;7315706;19;129920;-70
2022/03/09 10:08:03;;;;;;;18.10;11.60;;;;;;;20.09;19.22;102086.34;7317207;19;129546;-70
2022/03/09 10:10:35;;;;;;;16.10;11.60;;;;;;;20.05;19.06;102097.06;7316017;19;130128;-69
2022/03/09 10:13:15;;;;;;;17.42;11.45;;;;;;;20.03;19.60;102081.72;7317661;19;129739;-70
2022/03/09 10:15:48;;;;;;;17.70;11.63;;;;;;;19.98;19.50;102085.97;7318520;19;130620;-70
2022/03/09 10:18:19;;;;;;;16.17;11.02;;;;;;;19.95;19.47;102082.81;7313043;19;129445;-70
2022/03/09 10:20:48;;;;;;;19.70;12.88;;;;;;;19.93;19.16;102093.28;7313346;19;130045;-70
2022/03/09 10:23:17;;;;;;;20.67;12.00;;;;;;;19.90;19.36;102088.19;7317293;19;130177;-69
2022/03/09 10:25:47;;;;;;;20.20;12.70;;;;;;;19.88;19.38;102085.63;7312887;19;130601;-70
2022/03/09 10:28:13;;;;;;;23.30;12.05;;;;;;;19.87;19.86;102078.38;7316563;19;129872;-70
2022/03/09 10:30:42;;;;;;;28.25;13.15;;;;;;;19.84;19.67;102084.38;7314262;19;130833;-70
2022/03/09 10:33:13;;;;;;;20.83;13.80;;;;;;;19.82;19.59;102086.53;7315359;19;129020;-70
2022/03/09 10:35:48;;;;;;;19.20;12.38;;;;;;;19.82;19.52;102086.53;7316158;19;130380;-70
2022/03/09 10:38:15;;;;;;;20.58;10.80;;;;;;;19.83;20.01;102080.78;7313777;19;129945;-70
2022/03/09 10:40:43;;;;;;;20.17;11.43;;;;;;;19.85;20.08;102088.88;7316551;19;128978;-71
2022/03/09 10:43:12;;;;;;;20.73;11.50;;;;;;;19.87;20.05;102078.38;7316673;19;129335;-71
2022/03/09 10:46:11;;;;;;;15.07;10.13;;;;;;;19.91;20.11;102087.09;7314230;19;130624;-71
2022/03/09 10:48:50;;;;;;;17.20;9.63;;;;;;;19.93;20.60;102080.28;7316142;19;130370;-71
2022/03/09 10:51:37;;;;;;;14.90;8.88;;;;;;;20.00;20.28;102085.78;7314167;19;129030;-70
2022/03/09 10:54:08;;;;;;;15.32;9.13;;;;;;;20.06;20.33;102084.03;7314834;19;129311;-71
2022/03/09 10:56:36;;;;;;;17.10;9.25;;;;;;;20.11;20.52;102073.94;7316867;19;130570;-70
2022/03/09 10:59:09;;;;;;;15.95;9.75;;;;;;;20.17;20.42;102074.94;7314451;19;131131;-70
2022/03/09 11:01:37;;;;;;;15.30;8.18;;;;;;;20.21;20.66;102081.72;7315087;19;129432;-70
2022/03/09 11:04:16;;;;;;;15.20;9.02;;;;;;;20.26;20.69;102087.47;7314601;19;129952;-70
2022/03/09 11:06:48;;;;;;;13.57;9.00;;;;;;;20.27;20.75;102072.50;7313415;19;130454;-71
2022/03/09 11:09:16;;;;;;;15.77;8.50;;;;;;;20.29;20.84;102070.34;7313050;19;129519;-71
2022/03/09 11:11:48;;;;;;;13.80;8.23;;;;;;;20.29;20.62;102073.13;7318446;19;128890;-71
2022/03/09 11:14:17;;;;;;;15.85;8.13;;;;;;;20.28;21.15;102074.19;7314268;19;129316;-71
2022/03/09 11:16:45;;;;;;;13.85;8.45;;;;;;;20.26;20.97;102079.13;7324283;19;129606;-71
2022/03/09 11:19:13;;;;;;;17.10;9.07;;;;;;;20.23;20.99;102068.47;7312573;19;129417;-68
2022/03/09 11:21:41;;;;;;;17.48;11.45;;;;;;;20.19;20.59;102074.72;7313773;19;129112;-68
2022/03/09 11:24:13;;;;;;;21.98;11.82;;;;;;;20.16;20.95;102076.03;7313157;19;130549;-68